createdAt,value
2022-11-23T00:00:10.615Z,96.67
2022-11-23T00:01:10.594Z,96.67
2022-11-23T00:02:10.640Z,96.98
2022-11-23T00:03:10.576Z,97.09
2022-11-23T00:04:10.575Z,97.19
2022-11-23T00:05:10.542Z,97.09
2022-11-23T00:06:10.640Z,96.98
2022-11-23T00:07:10.626Z,96.88
2022-11-23T00:08:10.525Z,96.88
2022-11-23T00:09:10.485Z,96.83
2022-11-23T00:10:10.488Z,96.83
2022-11-23T00:11:10.459Z,96.83
2022-11-23T00:12:10.497Z,96.83
2022-11-23T00:13:10.440Z,96.83
2022-11-23T00:14:10.457Z,96.73
2022-11-23T00:15:10.434Z,96.73
2022-11-23T00:16:10.432Z,96.73
2022-11-23T00:17:10.403Z,96.62
2022-11-23T00:18:10.385Z,96.31
2022-11-23T00:19:10.358Z,96.11
2022-11-23T00:20:10.363Z,95.79
2022-11-23T00:21:10.359Z,95.69
2022-11-23T00:22:10.332Z,95.90
2022-11-23T00:23:10.314Z,96.00
2022-11-23T00:24:10.296Z,96.11
2022-11-23T00:25:10.411Z,96.25
2022-11-23T00:26:10.279Z,96.31
2022-11-23T00:27:10.270Z,96.42
2022-11-23T00:28:10.277Z,96.42
2022-11-23T00:29:10.231Z,96.21
2022-11-23T00:30:10.222Z,95.94
2022-11-23T00:31:10.227Z,95.94
2022-11-23T00:32:10.198Z,96.25
2022-11-23T00:33:10.177Z,96.36
2022-11-23T00:34:10.201Z,96.47
2022-11-23T00:35:10.150Z,96.42
2022-11-23T00:36:10.155Z,96.52
2022-11-23T00:37:10.141Z,96.73
2022-11-23T00:38:10.147Z,96.73
2022-11-23T00:39:10.119Z,96.62
2022-11-23T00:40:10.114Z,96.52
2022-11-23T00:41:10.084Z,96.42
2022-11-23T00:42:10.061Z,96.31
2022-11-23T00:43:10.061Z,96.21
2022-11-23T00:44:10.061Z,96.31
2022-11-23T00:45:10.041Z,96.42
2022-11-23T00:46:10.014Z,96.78
2022-11-23T00:47:10.005Z,96.88
2022-11-23T00:48:10.010Z,96.98
2022-11-23T00:49:10.005Z,97.09
2022-11-23T00:50:09.950Z,97.30
2022-11-23T00:51:09.961Z,97.40
2022-11-23T00:52:09.972Z,97.30
2022-11-23T00:53:09.937Z,97.40
2022-11-23T00:54:09.947Z,97.40
2022-11-23T00:55:09.919Z,97.50
2022-11-23T00:56:09.920Z,97.50
2022-11-23T00:57:09.861Z,97.50
2022-11-23T00:58:09.882Z,97.50
2022-11-23T00:59:09.841Z,97.50
2022-11-23T01:00:09.823Z,97.40
2022-11-23T01:01:09.918Z,97.50
2022-11-23T01:02:09.796Z,97.40
2022-11-23T01:03:09.832Z,97.40
2022-11-23T01:04:09.777Z,97.30
2022-11-23T01:05:09.773Z,97.19
2022-11-23T01:06:09.749Z,97.09
2022-11-23T01:07:09.817Z,96.98
2022-11-23T01:08:09.734Z,97.09
2022-11-23T01:09:09.756Z,97.09
2022-11-23T01:10:09.687Z,97.09
2022-11-23T01:11:09.683Z,97.09
2022-11-23T01:12:09.669Z,97.30
2022-11-23T01:13:09.695Z,97.40
2022-11-23T01:14:09.647Z,97.25
2022-11-23T01:15:09.668Z,97.35
2022-11-23T01:16:09.616Z,97.35
2022-11-23T01:17:09.623Z,97.25
2022-11-23T01:18:09.585Z,97.14
2022-11-23T01:19:10.447Z,97.04
2022-11-23T01:20:09.580Z,96.94
2022-11-23T01:21:09.573Z,96.73
2022-11-23T01:22:09.529Z,96.42
2022-11-23T01:23:09.538Z,96.21
2022-11-23T01:24:09.538Z,96.21
2022-11-23T01:25:09.530Z,96.31
2022-11-23T01:26:09.483Z,96.42
2022-11-23T01:27:09.481Z,96.31
2022-11-23T01:28:09.466Z,96.42
2022-11-23T01:29:09.480Z,96.52
2022-11-23T01:30:09.442Z,96.52
2022-11-23T01:31:09.423Z,96.25
2022-11-23T01:32:09.395Z,96.31
2022-11-23T01:33:09.405Z,96.31
2022-11-23T01:34:09.400Z,96.31
2022-11-23T01:35:09.375Z,96.42
2022-11-23T01:36:09.356Z,96.62
2022-11-23T01:37:09.380Z,96.73
2022-11-23T01:38:13.748Z,96.52
2022-11-23T01:39:09.325Z,96.31
2022-11-23T01:40:09.302Z,96.21
2022-11-23T01:41:09.286Z,96.31
2022-11-23T01:42:12.750Z,96.42
2022-11-23T01:43:09.269Z,96.31
2022-11-23T01:44:09.240Z,96.42
2022-11-23T01:45:09.242Z,96.42
2022-11-23T01:46:09.214Z,96.31
2022-11-23T01:47:09.242Z,96.21
2022-11-23T01:48:09.192Z,96.21
2022-11-23T01:49:09.191Z,96.21
2022-11-23T01:50:09.209Z,96.21
2022-11-23T01:51:09.188Z,96.21
2022-11-23T01:52:09.144Z,96.00
2022-11-23T01:53:09.143Z,95.79
2022-11-23T01:54:09.116Z,95.69
2022-11-23T01:55:09.126Z,95.69
2022-11-23T01:56:09.094Z,95.79
2022-11-23T01:57:09.120Z,96.11
2022-11-23T01:58:09.058Z,96.42
2022-11-23T01:59:09.055Z,96.52
2022-11-23T02:00:09.034Z,96.31
2022-11-23T02:01:09.084Z,96.31
2022-11-23T02:02:09.055Z,96.21
2022-11-23T02:03:09.009Z,96.42
2022-11-23T02:04:08.979Z,96.52
2022-11-23T02:05:08.992Z,96.62
2022-11-23T02:06:08.995Z,96.83
2022-11-23T02:07:09.025Z,96.94
2022-11-23T02:08:08.938Z,96.83
2022-11-23T02:09:08.953Z,96.62
2022-11-23T02:10:08.900Z,96.31
2022-11-23T02:11:08.903Z,96.21
2022-11-23T02:12:08.912Z,96.21
2022-11-23T02:13:08.886Z,96.21
2022-11-23T02:14:08.850Z,96.52
2022-11-23T02:15:08.875Z,96.62
2022-11-23T02:16:08.825Z,96.73
2022-11-23T02:17:08.815Z,96.94
2022-11-23T02:18:08.800Z,96.94
2022-11-23T02:19:09.037Z,96.83
2022-11-23T02:20:08.796Z,96.83
2022-11-23T02:21:08.774Z,96.83
2022-11-23T02:22:08.746Z,96.94
2022-11-23T02:23:08.787Z,96.94
2022-11-23T02:24:08.730Z,97.14
2022-11-23T02:25:08.719Z,97.25
2022-11-23T02:26:08.700Z,97.35
2022-11-23T02:27:08.688Z,97.35
2022-11-23T02:28:08.697Z,97.45
2022-11-23T02:29:08.678Z,97.45
2022-11-23T02:30:08.646Z,97.56
2022-11-23T02:31:08.643Z,97.45
2022-11-23T02:32:08.622Z,97.35
2022-11-23T02:33:08.636Z,97.45
2022-11-23T02:34:08.627Z,97.45
2022-11-23T02:35:08.609Z,97.35
2022-11-23T02:36:08.569Z,97.25
2022-11-23T02:37:08.593Z,97.25
2022-11-23T02:38:08.551Z,97.35
2022-11-23T02:39:08.545Z,97.35
2022-11-23T02:40:08.515Z,97.25
2022-11-23T02:41:08.511Z,97.04
2022-11-23T02:42:08.522Z,96.94
2022-11-23T02:43:08.486Z,96.83
2022-11-23T02:44:08.455Z,96.73
2022-11-23T02:45:08.484Z,96.62
2022-11-23T02:46:08.434Z,96.52
2022-11-23T02:47:08.441Z,96.52
2022-11-23T02:48:08.415Z,96.42
2022-11-23T02:49:08.403Z,96.31
2022-11-23T02:50:08.403Z,96.42
2022-11-23T02:51:08.374Z,96.42
2022-11-23T02:52:08.367Z,96.31
2022-11-23T02:53:08.364Z,96.31
2022-11-23T02:54:08.335Z,96.31
2022-11-23T02:55:08.361Z,96.21
2022-11-23T02:56:08.339Z,96.31
2022-11-23T02:57:08.302Z,96.52
2022-11-23T02:58:08.272Z,96.52
2022-11-23T02:59:08.269Z,96.42
2022-11-23T03:00:08.239Z,96.31
2022-11-23T03:01:08.415Z,96.31
2022-11-23T03:02:08.262Z,96.31
2022-11-23T03:03:08.221Z,96.31
2022-11-23T03:04:08.192Z,96.42
2022-11-23T03:05:08.199Z,96.31
2022-11-23T03:06:08.176Z,96.31
2022-11-23T03:07:08.253Z,96.11
2022-11-23T03:08:08.137Z,95.90
2022-11-23T03:09:08.142Z,96.11
2022-11-23T03:10:08.127Z,96.11
2022-11-23T03:11:08.141Z,96.00
2022-11-23T03:12:08.094Z,95.90
2022-11-23T03:13:08.088Z,96.21
2022-11-23T03:14:08.067Z,96.42
2022-11-23T03:15:08.102Z,96.52
2022-11-23T03:16:08.044Z,96.62
2022-11-23T03:17:08.038Z,96.52
2022-11-23T03:18:08.044Z,96.62
2022-11-23T03:19:08.015Z,96.73
2022-11-23T03:20:07.989Z,96.73
2022-11-23T03:21:08.001Z,96.62
2022-11-23T03:22:07.964Z,96.31
2022-11-23T03:23:07.984Z,96.21
2022-11-23T03:24:07.984Z,96.00
2022-11-23T03:25:07.933Z,96.00
2022-11-23T03:26:12.653Z,96.00
2022-11-23T03:27:07.914Z,95.90
2022-11-23T03:28:07.881Z,96.00
2022-11-23T03:29:07.899Z,96.00
2022-11-23T03:30:07.851Z,96.11
2022-11-23T03:31:07.850Z,96.00
2022-11-23T03:32:07.867Z,95.90
2022-11-23T03:33:07.847Z,95.69
2022-11-23T03:34:07.802Z,95.69
2022-11-23T03:35:07.802Z,95.90
2022-11-23T03:36:07.799Z,96.00
2022-11-23T03:37:07.804Z,95.90
2022-11-23T03:38:07.776Z,95.90
2022-11-23T03:39:07.746Z,95.79
2022-11-23T03:40:07.719Z,95.90
2022-11-23T03:41:07.719Z,96.00
2022-11-23T03:42:07.843Z,96.00
2022-11-23T03:43:07.703Z,96.21
2022-11-23T03:44:07.671Z,96.52
2022-11-23T03:45:07.674Z,96.62
2022-11-23T03:46:07.682Z,96.62
2022-11-23T03:47:07.681Z,96.73
2022-11-23T03:48:07.638Z,96.73
2022-11-23T03:49:07.609Z,96.62
2022-11-23T03:50:07.592Z,96.42
2022-11-23T03:51:07.615Z,96.21
2022-11-23T03:52:07.558Z,96.00
2022-11-23T03:53:07.599Z,95.90
2022-11-23T03:54:07.540Z,95.79
2022-11-23T03:55:07.538Z,95.69
2022-11-23T03:56:07.532Z,95.59
2022-11-23T03:57:07.505Z,95.59
2022-11-23T03:58:07.524Z,95.79
2022-11-23T03:59:07.483Z,95.90
2022-11-23T04:00:07.459Z,95.79
2022-11-23T04:01:07.488Z,95.69
2022-11-23T04:02:07.429Z,95.69
2022-11-23T04:03:07.449Z,95.69
2022-11-23T04:04:07.410Z,95.59
2022-11-23T04:05:07.429Z,95.48
2022-11-23T04:06:07.393Z,95.38
2022-11-23T04:07:07.397Z,95.38
2022-11-23T04:08:07.353Z,95.48
2022-11-23T04:09:07.350Z,95.63
2022-11-23T04:10:07.380Z,95.73
2022-11-23T04:11:07.330Z,95.79
2022-11-23T04:12:07.330Z,95.79
2022-11-23T04:13:07.298Z,95.90
2022-11-23T04:14:07.279Z,96.00
2022-11-23T04:15:07.278Z,95.79
2022-11-23T04:16:07.317Z,95.79
2022-11-23T04:17:07.272Z,95.79
2022-11-23T04:18:07.235Z,95.69
2022-11-23T04:19:07.217Z,95.73
2022-11-23T04:20:07.221Z,95.73
2022-11-23T04:21:07.207Z,95.63
2022-11-23T04:22:07.173Z,95.63
2022-11-23T04:23:12.880Z,95.73
2022-11-23T04:24:07.184Z,95.73
2022-11-23T04:25:07.153Z,95.63
2022-11-23T04:26:07.129Z,95.53
2022-11-23T04:27:07.124Z,95.53
2022-11-23T04:28:07.128Z,95.53
2022-11-23T04:29:07.093Z,95.53
2022-11-23T04:30:07.093Z,95.84
2022-11-23T04:31:07.059Z,95.73
2022-11-23T04:32:07.091Z,95.53
2022-11-23T04:33:07.038Z,95.53
2022-11-23T04:34:07.038Z,95.42
2022-11-23T04:35:07.008Z,95.53
2022-11-23T04:36:07.015Z,95.42
2022-11-23T04:37:11.804Z,95.32
2022-11-23T04:38:06.966Z,95.32
2022-11-23T04:39:06.980Z,95.53
2022-11-23T04:40:06.937Z,95.53
2022-11-23T04:41:06.931Z,95.73
2022-11-23T04:42:06.903Z,95.73
2022-11-23T04:43:06.931Z,95.84
2022-11-23T04:44:06.883Z,95.73
2022-11-23T04:45:06.900Z,95.63
2022-11-23T04:46:06.853Z,95.32
2022-11-23T04:47:06.871Z,95.11
2022-11-23T04:48:06.834Z,94.90
2022-11-23T04:49:06.820Z,94.90
2022-11-23T04:50:06.828Z,94.84
2022-11-23T04:51:06.799Z,94.95
2022-11-23T04:52:06.805Z,95.15
2022-11-23T04:53:06.813Z,95.36
2022-11-23T04:54:06.757Z,95.47
2022-11-23T04:55:06.760Z,95.99
2022-11-23T04:56:06.731Z,96.30
2022-11-23T04:57:06.714Z,96.20
2022-11-23T04:58:06.715Z,96.20
2022-11-23T04:59:06.688Z,95.99
2022-11-23T05:00:06.715Z,95.99
2022-11-23T05:01:06.749Z,95.89
2022-11-23T05:02:06.691Z,95.78
2022-11-23T05:03:06.636Z,95.78
2022-11-23T05:04:06.633Z,95.78
2022-11-23T05:05:06.605Z,95.57
2022-11-23T05:06:06.612Z,95.36
2022-11-23T05:07:06.682Z,95.47
2022-11-23T05:08:06.625Z,95.57
2022-11-23T05:09:06.552Z,95.57
2022-11-23T05:10:06.554Z,95.78
2022-11-23T05:11:06.545Z,96.20
2022-11-23T05:12:06.529Z,96.20
2022-11-23T05:13:06.503Z,95.89
2022-11-23T05:14:06.515Z,95.78
2022-11-23T05:15:06.506Z,95.78
2022-11-23T05:16:06.479Z,95.78
2022-11-23T05:17:06.456Z,95.89
2022-11-23T05:18:06.477Z,95.78
2022-11-23T05:19:06.431Z,95.57
2022-11-23T05:20:06.445Z,95.47
2022-11-23T05:21:06.392Z,95.47
2022-11-23T05:22:06.421Z,95.67
2022-11-23T05:23:06.359Z,95.89
2022-11-23T05:24:06.368Z,95.99
2022-11-23T05:25:06.372Z,95.99
2022-11-23T05:26:06.377Z,95.89
2022-11-23T05:27:06.321Z,95.57
2022-11-23T05:28:23.294Z,95.47
2022-11-23T05:29:06.298Z,95.47
2022-11-23T05:30:06.299Z,95.57
2022-11-23T05:31:06.281Z,95.67
2022-11-23T05:32:06.278Z,95.78
2022-11-23T05:33:06.246Z,95.78
2022-11-23T05:34:06.255Z,95.57
2022-11-23T05:35:06.207Z,95.57
2022-11-23T05:36:06.207Z,95.36
2022-11-23T05:37:06.192Z,95.05
2022-11-23T05:38:06.192Z,95.05
2022-11-23T05:39:06.185Z,95.15
2022-11-23T05:40:06.163Z,95.47
2022-11-23T05:41:06.157Z,95.67
2022-11-23T05:42:06.133Z,95.78
2022-11-23T05:43:06.108Z,95.89
2022-11-23T05:44:06.138Z,95.99
2022-11-23T05:45:11.115Z,95.99
2022-11-23T05:46:06.081Z,95.89
2022-11-23T05:47:06.078Z,95.57
2022-11-23T05:48:06.099Z,95.36
2022-11-23T05:49:06.038Z,95.26
2022-11-23T05:50:06.053Z,95.36
2022-11-23T05:51:06.011Z,95.26
2022-11-23T05:52:05.996Z,95.36
2022-11-23T05:53:06.016Z,95.57
2022-11-23T05:54:05.993Z,95.89
2022-11-23T05:55:05.983Z,95.89
2022-11-23T05:56:05.946Z,95.78
2022-11-23T05:57:05.917Z,95.57
2022-11-23T05:58:05.963Z,95.15
2022-11-23T05:59:05.949Z,95.15
2022-11-23T06:00:05.910Z,95.26
2022-11-23T06:01:05.895Z,95.47
2022-11-23T06:02:06.708Z,95.47
2022-11-23T06:03:05.855Z,95.36
2022-11-23T06:04:05.917Z,95.47
2022-11-23T06:05:05.962Z,95.57
2022-11-23T06:06:05.853Z,95.57
2022-11-23T06:07:05.973Z,95.57
2022-11-23T06:08:05.794Z,95.57
2022-11-23T06:09:05.791Z,95.57
2022-11-23T06:10:05.959Z,95.47
2022-11-23T06:11:05.755Z,95.15
2022-11-23T06:12:05.769Z,95.15
2022-11-23T06:13:05.722Z,95.15
2022-11-23T06:14:09.935Z,94.95
2022-11-23T06:15:05.699Z,94.95
2022-11-23T06:16:05.724Z,95.05
2022-11-23T06:17:05.691Z,95.05
2022-11-23T06:18:05.661Z,95.05
2022-11-23T06:19:05.643Z,95.26
2022-11-23T06:20:05.657Z,95.47
2022-11-23T06:21:05.607Z,95.78
2022-11-23T06:22:05.633Z,95.78
2022-11-23T06:23:05.589Z,95.99
2022-11-23T06:24:05.579Z,96.20
2022-11-23T06:25:05.595Z,96.20
2022-11-23T06:26:05.553Z,96.09
2022-11-23T06:27:05.534Z,95.99
2022-11-23T06:28:05.571Z,95.89
2022-11-23T06:29:05.501Z,95.89
2022-11-23T06:30:05.504Z,95.89
2022-11-23T06:31:05.486Z,95.99
2022-11-23T06:32:05.483Z,95.99
2022-11-23T06:33:05.485Z,95.78
2022-11-23T06:34:05.464Z,95.67
2022-11-23T06:35:05.432Z,95.47
2022-11-23T06:36:05.421Z,95.36
2022-11-23T06:37:05.459Z,95.26
2022-11-23T06:38:05.436Z,95.36
2022-11-23T06:39:05.373Z,95.89
2022-11-23T06:40:05.371Z,95.89
2022-11-23T06:41:05.355Z,95.67
2022-11-23T06:42:23.717Z,95.57
2022-11-23T06:43:05.327Z,95.47
2022-11-23T06:44:05.334Z,95.47
2022-11-23T06:45:05.291Z,95.57
2022-11-23T06:46:05.299Z,95.67
2022-11-23T06:47:05.265Z,95.78
2022-11-23T06:48:05.263Z,95.89
2022-11-23T06:49:05.260Z,95.99
2022-11-23T06:50:05.240Z,96.20
2022-11-23T06:51:05.225Z,96.30
2022-11-23T06:52:05.207Z,96.51
2022-11-23T06:53:05.220Z,96.61
2022-11-23T06:54:05.186Z,96.61
2022-11-23T06:55:05.167Z,96.61
2022-11-23T06:56:05.172Z,96.72
2022-11-23T06:57:05.172Z,96.61
2022-11-23T06:58:05.148Z,96.51
2022-11-23T06:59:05.146Z,96.47
2022-11-23T07:00:05.137Z,96.36
2022-11-23T07:01:05.109Z,96.04
2022-11-23T07:02:05.087Z,95.84
2022-11-23T07:03:05.067Z,95.84
2022-11-23T07:04:05.062Z,96.04
2022-11-23T07:05:05.081Z,96.04
2022-11-23T07:06:05.030Z,95.84
2022-11-23T07:07:05.133Z,95.84
2022-11-23T07:08:05.007Z,95.84
2022-11-23T07:09:05.011Z,95.73
2022-11-23T07:10:07.220Z,95.78
2022-11-23T07:11:04.954Z,95.78
2022-11-23T07:12:04.961Z,95.89
2022-11-23T07:13:04.977Z,96.09
2022-11-23T07:14:04.948Z,96.20
2022-11-23T07:15:04.900Z,96.30
2022-11-23T07:16:04.911Z,96.51
2022-11-23T07:17:04.990Z,96.61
2022-11-23T07:18:04.873Z,96.72
2022-11-23T07:19:04.870Z,96.72
2022-11-23T07:20:04.837Z,96.82
2022-11-23T07:21:04.826Z,96.92
2022-11-23T07:22:04.846Z,96.92
2022-11-23T07:23:04.792Z,97.03
2022-11-23T07:24:04.844Z,97.24
2022-11-23T07:25:04.764Z,97.24
2022-11-23T07:26:04.802Z,97.34
2022-11-23T07:27:04.749Z,97.13
2022-11-23T07:28:04.745Z,97.13
2022-11-23T07:29:04.726Z,97.03
2022-11-23T07:30:04.775Z,96.92
2022-11-23T07:31:04.749Z,96.92
2022-11-23T07:32:04.714Z,96.82
2022-11-23T07:33:04.667Z,96.92
2022-11-23T07:34:04.661Z,97.03
2022-11-23T07:35:04.642Z,96.98
2022-11-23T07:36:04.629Z,96.98
2022-11-23T07:37:04.644Z,97.13
2022-11-23T07:38:04.644Z,97.09
2022-11-23T07:39:04.592Z,97.24
2022-11-23T07:40:05.038Z,97.34
2022-11-23T07:41:04.577Z,97.34
2022-11-23T07:42:30.902Z,97.34
2022-11-23T07:43:04.574Z,97.30
2022-11-23T07:44:04.526Z,97.30
2022-11-23T07:45:04.512Z,97.30
2022-11-23T07:46:04.529Z,97.30
2022-11-23T07:47:04.484Z,97.30
2022-11-23T07:48:04.477Z,97.19
2022-11-23T07:49:04.452Z,97.19
2022-11-23T07:50:04.474Z,97.09
2022-11-23T07:51:04.455Z,97.09
2022-11-23T07:52:04.423Z,96.88
2022-11-23T07:53:04.396Z,96.78
2022-11-23T07:54:04.408Z,96.78
2022-11-23T07:55:04.379Z,96.78
2022-11-23T07:56:04.390Z,96.73
2022-11-23T07:57:04.376Z,96.73
2022-11-23T07:58:04.344Z,96.73
2022-11-23T07:59:04.335Z,96.83
2022-11-23T08:00:04.317Z,96.94
2022-11-23T08:01:04.302Z,96.94
2022-11-23T08:02:04.391Z,97.04
2022-11-23T08:03:26.718Z,97.25
2022-11-23T08:04:04.276Z,97.20
2022-11-23T08:05:04.248Z,97.20
2022-11-23T08:06:04.275Z,97.31
2022-11-23T08:07:04.404Z,97.31
2022-11-23T08:08:04.223Z,97.41
2022-11-23T08:09:04.214Z,97.41
2022-11-23T08:10:04.186Z,97.52
2022-11-23T08:11:04.200Z,97.58
2022-11-23T08:12:04.158Z,97.58
2022-11-23T08:13:04.144Z,97.47
2022-11-23T08:14:04.138Z,97.37
2022-11-23T08:15:04.144Z,97.27
2022-11-23T08:16:04.134Z,97.16
2022-11-23T08:17:04.090Z,96.85
2022-11-23T08:18:04.112Z,96.75
2022-11-23T08:19:04.113Z,96.64
2022-11-23T08:20:04.062Z,96.64
2022-11-23T08:21:04.035Z,96.70
2022-11-23T08:22:04.034Z,96.70
2022-11-23T08:23:04.019Z,96.60
2022-11-23T08:24:04.044Z,96.60
2022-11-23T08:25:04.010Z,96.60
2022-11-23T08:26:06.666Z,96.60
2022-11-23T08:27:03.982Z,96.45
2022-11-23T08:28:03.967Z,96.24
2022-11-23T08:29:03.973Z,95.62
2022-11-23T08:30:03.921Z,95.51
2022-11-23T08:31:03.924Z,95.41
2022-11-23T08:32:03.898Z,95.31
2022-11-23T08:33:03.909Z,95.20
2022-11-23T08:34:04.031Z,95.10
2022-11-23T08:35:03.848Z,94.89
2022-11-23T08:36:03.885Z,94.68
2022-11-23T08:37:03.830Z,94.64
2022-11-23T08:38:03.858Z,94.95
2022-11-23T08:39:03.837Z,95.26
2022-11-23T08:40:03.809Z,95.16
2022-11-23T08:41:03.797Z,94.95
2022-11-23T08:42:03.769Z,94.95
2022-11-23T08:43:03.761Z,95.06
2022-11-23T08:44:03.768Z,95.06
2022-11-23T08:45:03.733Z,95.22
2022-11-23T08:46:07.974Z,94.91
2022-11-23T08:47:04.542Z,94.91
2022-11-23T08:48:03.682Z,94.91
2022-11-23T08:49:03.712Z,94.56
2022-11-23T08:50:03.673Z,94.76
2022-11-23T08:51:03.651Z,94.31
2022-11-23T08:52:03.641Z,93.58
2022-11-23T08:53:03.649Z,93.02
2022-11-23T08:54:03.666Z,92.91
2022-11-23T08:55:03.582Z,92.25
2022-11-23T08:56:03.593Z,91.07
2022-11-23T08:57:03.570Z,89.94
2022-11-23T08:58:03.576Z,88.49
2022-11-23T08:59:03.542Z,87.76
2022-11-23T09:00:03.521Z,87.97
2022-11-23T09:01:03.650Z,88.70
2022-11-23T09:02:03.533Z,88.39
2022-11-23T09:03:03.491Z,88.96
2022-11-23T09:04:03.465Z,89.38
2022-11-23T09:05:03.470Z,89.69
2022-11-23T09:06:03.459Z,89.38
2022-11-23T09:07:03.429Z,89.54
2022-11-23T09:08:03.430Z,89.54
2022-11-23T09:09:03.408Z,89.13
2022-11-23T09:10:03.404Z,89.34
2022-11-23T09:11:03.448Z,88.78
2022-11-23T09:12:03.363Z,88.37
2022-11-23T09:13:03.363Z,87.65
2022-11-23T09:14:03.342Z,87.44
2022-11-23T09:15:03.359Z,87.54
2022-11-23T09:16:03.354Z,87.44
2022-11-23T09:17:03.305Z,86.61
2022-11-23T09:18:03.288Z,86.65
2022-11-23T09:19:03.302Z,86.24
2022-11-23T09:20:03.279Z,86.24
2022-11-23T09:21:03.271Z,86.55
2022-11-23T09:22:03.237Z,87.17
2022-11-23T09:23:03.230Z,86.86
2022-11-23T09:24:03.241Z,87.34
2022-11-23T09:25:03.280Z,87.13
2022-11-23T09:26:03.190Z,87.23
2022-11-23T09:27:03.174Z,87.08
2022-11-23T09:28:03.191Z,86.57
2022-11-23T09:29:03.144Z,86.88
2022-11-23T09:30:03.149Z,86.57
2022-11-23T09:31:03.116Z,86.63
2022-11-23T09:32:03.102Z,85.60
2022-11-23T09:33:03.099Z,84.88
2022-11-23T09:34:03.072Z,84.67
2022-11-23T09:35:03.109Z,85.05
2022-11-23T09:36:03.073Z,84.64
2022-11-23T09:37:03.055Z,84.74
2022-11-23T09:38:03.023Z,84.59
2022-11-23T09:39:03.043Z,84.66
2022-11-23T09:40:03.017Z,84.14
2022-11-23T09:41:02.979Z,83.07
2022-11-23T09:42:02.956Z,83.76
2022-11-23T09:43:02.963Z,83.00
2022-11-23T09:44:02.952Z,82.86
2022-11-23T09:45:03.150Z,81.11
2022-11-23T09:46:02.910Z,81.59
2022-11-23T09:47:02.908Z,79.91
2022-11-23T09:48:02.886Z,79.36
2022-11-23T09:49:02.897Z,78.53
2022-11-23T09:50:02.865Z,77.20
2022-11-23T09:51:02.854Z,77.58
2022-11-23T09:52:02.995Z,78.39
2022-11-23T09:53:02.827Z,78.56
2022-11-23T09:54:02.804Z,79.18
2022-11-23T09:55:02.796Z,78.42
2022-11-23T09:56:02.798Z,77.16
2022-11-23T09:57:02.768Z,75.11
2022-11-23T09:58:02.751Z,75.62
2022-11-23T09:59:02.739Z,75.11
2022-11-23T10:00:02.727Z,74.87
2022-11-23T10:01:02.750Z,74.26
2022-11-23T10:02:02.752Z,72.24
2022-11-23T10:03:02.710Z,73.27
2022-11-23T10:04:02.671Z,74.26
2022-11-23T10:05:02.657Z,73.54
2022-11-23T10:06:02.671Z,72.41
2022-11-23T10:07:02.713Z,71.69
2022-11-23T10:08:02.625Z,69.95
2022-11-23T10:09:02.613Z,71.80
2022-11-23T10:10:02.592Z,69.75
2022-11-23T10:11:02.585Z,70.87
2022-11-23T10:12:02.583Z,73.13
2022-11-23T10:13:02.556Z,69.44
2022-11-23T10:14:02.528Z,69.95
2022-11-23T10:15:02.530Z,70.33
2022-11-23T10:16:02.538Z,69.24
2022-11-23T10:17:02.539Z,69.95
2022-11-23T10:18:02.509Z,70.98
2022-11-23T10:19:02.483Z,71.90
2022-11-23T10:20:02.460Z,71.90
2022-11-23T10:21:02.468Z,69.85
2022-11-23T10:22:02.450Z,68.96
2022-11-23T10:23:02.423Z,70.09
2022-11-23T10:24:02.438Z,68.17
2022-11-23T10:25:02.437Z,69.40
2022-11-23T10:26:02.375Z,71.28
2022-11-23T10:27:02.407Z,72.41
2022-11-23T10:28:02.349Z,72.31
2022-11-23T10:29:02.372Z,71.08
2022-11-23T10:30:02.326Z,69.74
2022-11-23T10:31:02.331Z,71.42
2022-11-23T10:32:02.328Z,70.53
2022-11-23T10:33:02.309Z,71.08
2022-11-23T10:34:02.269Z,71.34
2022-11-23T10:35:02.270Z,72.72
2022-11-23T10:36:02.268Z,74.46
2022-11-23T10:37:02.252Z,74.08
2022-11-23T10:38:02.245Z,74.40
2022-11-23T10:39:02.208Z,74.40
2022-11-23T10:40:02.217Z,74.84
2022-11-23T10:41:02.207Z,75.94
2022-11-23T10:42:02.169Z,75.59
2022-11-23T10:43:02.203Z,75.18
2022-11-23T10:44:02.138Z,73.95
2022-11-23T10:45:02.163Z,75.39
2022-11-23T10:46:02.130Z,76.59
2022-11-23T10:47:02.138Z,75.25
2022-11-23T10:48:02.113Z,75.35
2022-11-23T10:49:02.085Z,75.46
2022-11-23T10:50:02.090Z,76.35
2022-11-23T10:51:02.047Z,76.86
2022-11-23T10:52:02.058Z,76.35
2022-11-23T10:53:02.022Z,76.04
2022-11-23T10:54:05.220Z,75.93
2022-11-23T10:55:01.995Z,76.14
2022-11-23T10:56:02.015Z,76.76
2022-11-23T10:57:01.977Z,77.48
2022-11-23T10:58:01.946Z,78.20
2022-11-23T10:59:01.950Z,78.81
2022-11-23T11:00:01.951Z,78.88
2022-11-23T11:01:01.916Z,78.67
2022-11-23T11:02:01.983Z,78.16
2022-11-23T11:03:02.609Z,77.65
2022-11-23T11:04:01.890Z,76.68
2022-11-23T11:05:01.902Z,76.58
2022-11-23T11:06:10.532Z,76.42
2022-11-23T11:07:01.853Z,76.72
2022-11-23T11:08:01.821Z,76.10
2022-11-23T11:09:03.737Z,75.08
2022-11-23T11:10:01.825Z,74.70
2022-11-23T11:11:01.875Z,75.01
2022-11-23T11:12:01.776Z,74.60
2022-11-23T11:13:01.754Z,75.15
2022-11-23T11:14:01.761Z,75.97
2022-11-23T11:15:10.369Z,76.69
2022-11-23T11:16:01.733Z,77.20
2022-11-23T11:17:01.768Z,76.69
2022-11-23T11:18:01.679Z,77.00
2022-11-23T11:19:01.704Z,77.20
2022-11-23T11:20:01.658Z,77.00
2022-11-23T11:21:01.739Z,77.51
2022-11-23T11:22:01.656Z,75.97
2022-11-23T11:23:01.649Z,77.20
2022-11-23T11:24:01.602Z,77.41
2022-11-23T11:25:01.590Z,77.82
2022-11-23T11:26:01.635Z,77.82
2022-11-23T11:27:01.600Z,77.72
2022-11-23T11:28:01.545Z,77.82
2022-11-23T11:29:01.546Z,77.82
2022-11-23T11:30:01.519Z,77.82
2022-11-23T11:31:01.516Z,77.92
2022-11-23T11:32:01.517Z,77.89
2022-11-23T11:33:01.497Z,78.71
2022-11-23T11:34:01.468Z,78.50
2022-11-23T11:35:01.477Z,78.40
2022-11-23T11:36:01.443Z,77.99
2022-11-23T11:37:01.461Z,77.99
2022-11-23T11:38:01.419Z,78.20
2022-11-23T11:39:17.570Z,78.40
2022-11-23T11:40:01.387Z,77.65
2022-11-23T11:41:01.408Z,76.72
2022-11-23T11:42:01.360Z,77.34
2022-11-23T11:43:01.383Z,77.75
2022-11-23T11:44:01.355Z,77.03
2022-11-23T11:45:01.322Z,75.80
2022-11-23T11:46:31.385Z,76.38
2022-11-23T11:47:01.310Z,76.89
2022-11-23T11:48:01.303Z,76.17
2022-11-23T11:49:01.274Z,75.66
2022-11-23T11:50:01.257Z,75.52
2022-11-23T11:51:01.286Z,75.38
2022-11-23T11:52:01.292Z,75.28
2022-11-23T11:53:01.255Z,74.63
2022-11-23T11:54:01.193Z,74.39
2022-11-23T11:55:01.223Z,75.07
2022-11-23T11:56:01.176Z,74.11
2022-11-23T11:57:01.223Z,72.14
2022-11-23T11:58:01.152Z,70.91
2022-11-23T11:59:01.177Z,70.40
2022-11-23T12:00:01.116Z,70.20
2022-11-23T12:01:01.114Z,70.09
2022-11-23T12:02:01.095Z,70.91
2022-11-23T12:03:01.130Z,70.29
2022-11-23T12:04:01.092Z,70.09
2022-11-23T12:05:01.060Z,69.27
2022-11-23T12:06:01.031Z,70.50
2022-11-23T12:07:01.038Z,70.91
2022-11-23T12:08:01.039Z,69.34
2022-11-23T12:09:01.007Z,68.73
2022-11-23T12:10:00.985Z,68.42
2022-11-23T12:11:00.982Z,68.93
2022-11-23T12:12:00.966Z,67.91
2022-11-23T12:13:00.983Z,68.32
2022-11-23T12:14:00.936Z,67.33
2022-11-23T12:15:00.933Z,68.46
2022-11-23T12:16:00.902Z,69.99
2022-11-23T12:17:30.945Z,67.97
2022-11-23T12:18:00.928Z,69.51
2022-11-23T12:19:00.904Z,69.92
2022-11-23T12:20:00.881Z,69.41
2022-11-23T12:21:00.887Z,71.22
2022-11-23T12:22:00.871Z,69.85
2022-11-23T12:23:00.830Z,70.13
2022-11-23T12:24:00.790Z,69.35
2022-11-23T12:25:00.821Z,67.99
2022-11-23T12:26:00.773Z,66.42
2022-11-23T12:27:00.761Z,64.59
2022-11-23T12:28:00.743Z,64.01
2022-11-23T12:29:00.767Z,64.83
2022-11-23T12:30:00.713Z,65.03
2022-11-23T12:31:00.745Z,65.71
2022-11-23T12:32:00.690Z,65.92
2022-11-23T12:33:00.717Z,65.92
2022-11-23T12:34:00.681Z,64.25
2022-11-23T12:35:00.672Z,62.59
2022-11-23T12:36:00.629Z,62.08
2022-11-23T12:37:00.665Z,61.78
2022-11-23T12:38:00.604Z,62.16
2022-11-23T12:39:00.602Z,63.65
2022-11-23T12:40:00.585Z,62.02
2022-11-23T12:41:00.601Z,62.30
2022-11-23T12:42:00.581Z,60.37
2022-11-23T12:43:00.557Z,61.76
2022-11-23T12:44:00.564Z,60.85
2022-11-23T12:45:00.551Z,60.72
2022-11-23T12:46:00.521Z,60.61
2022-11-23T12:47:00.487Z,58.86
2022-11-23T12:48:00.512Z,58.65
2022-11-23T12:49:00.482Z,58.76
2022-11-23T12:50:00.491Z,58.86
2022-11-23T12:51:00.450Z,58.15
2022-11-23T12:52:00.427Z,59.06